createdAt,value
2023-05-05T00:01:38.396Z,11.41
2023-05-05T00:04:40.685Z,11.21
2023-05-05T00:07:42.919Z,11.03
2023-05-05T00:10:46.038Z,10.86
2023-05-05T00:13:48.614Z,10.74
2023-05-05T00:16:50.955Z,10.78
2023-05-05T00:19:53.226Z,10.82
2023-05-05T00:22:55.622Z,10.86
2023-05-05T00:25:57.923Z,10.95
2023-05-05T00:29:00.230Z,10.91
2023-05-05T00:32:02.583Z,10.92
2023-05-05T00:35:06.239Z,10.95
2023-05-05T00:38:08.541Z,11.00
2023-05-05T00:41:11.060Z,10.92
2023-05-05T00:44:13.324Z,11.02
2023-05-05T00:47:16.782Z,11.07
2023-05-05T00:50:26.283Z,11.13
2023-05-05T00:53:29.109Z,11.16
2023-05-05T00:56:31.797Z,11.06
2023-05-05T00:59:35.039Z,10.83
2023-05-05T01:02:38.616Z,10.67
2023-05-05T01:05:53.055Z,10.59
2023-05-05T01:09:02.212Z,10.72
2023-05-05T01:12:20.210Z,10.54
2023-05-05T01:15:45.867Z,10.48
2023-05-05T01:18:58.367Z,10.36
2023-05-05T01:22:03.950Z,10.28
2023-05-05T01:25:30.049Z,10.10
2023-05-05T01:29:05.572Z,9.87
2023-05-05T01:32:15.296Z,9.75
2023-05-05T01:35:45.695Z,9.63
2023-05-05T01:38:51.865Z,9.54
2023-05-05T01:41:58.968Z,9.54
2023-05-05T01:45:04.834Z,9.47
2023-05-05T01:48:09.328Z,9.40
2023-05-05T01:51:13.175Z,9.25
2023-05-05T01:54:17.714Z,9.11
2023-05-05T01:57:21.546Z,9.06
2023-05-05T02:00:25.490Z,9.10
2023-05-05T02:03:30.676Z,9.07
2023-05-05T02:06:35.059Z,9.27
2023-05-05T02:09:38.820Z,9.35
2023-05-05T02:12:42.717Z,9.58
2023-05-05T02:15:45.608Z,9.53
2023-05-05T02:18:49.308Z,9.55
2023-05-05T02:21:51.590Z,9.26
2023-05-05T02:24:54.489Z,9.29
2023-05-05T02:27:59.822Z,9.32
2023-05-05T02:31:04.900Z,9.39
2023-05-05T02:34:08.837Z,9.41
2023-05-05T02:37:19.775Z,9.39
2023-05-05T02:40:28.712Z,9.21
2023-05-05T02:43:33.230Z,9.12
2023-05-05T02:46:38.402Z,9.11
2023-05-05T02:49:40.865Z,9.11
2023-05-05T02:52:44.792Z,9.06
2023-05-05T02:56:11.211Z,9.07
2023-05-05T02:59:39.232Z,8.94
2023-05-05T03:02:48.465Z,8.74
2023-05-05T03:05:59.128Z,8.66
2023-05-05T03:09:21.277Z,8.64
2023-05-05T03:12:31.395Z,8.73
2023-05-05T03:15:51.769Z,8.57
2023-05-05T03:18:58.741Z,8.36
2023-05-05T03:22:04.249Z,8.26
2023-05-05T03:25:07.318Z,8.32
2023-05-05T03:28:09.666Z,8.12
2023-05-05T03:31:12.733Z,8.19
2023-05-05T03:34:15.526Z,8.04
2023-05-05T03:37:21.544Z,8.03
2023-05-05T03:40:36.355Z,8.10
2023-05-05T03:43:46.378Z,8.33
2023-05-05T03:46:48.662Z,8.25
2023-05-05T03:49:52.513Z,8.37
2023-05-05T03:52:54.913Z,8.50
2023-05-05T03:55:57.681Z,8.59
2023-05-05T03:59:00.033Z,8.56
2023-05-05T04:02:02.885Z,8.56
2023-05-05T04:05:05.630Z,8.40
2023-05-05T04:08:08.349Z,8.41
2023-05-05T04:11:10.967Z,8.66
2023-05-05T04:14:13.825Z,8.95
2023-05-05T04:17:16.224Z,9.18
2023-05-05T04:20:19.014Z,9.25
2023-05-05T04:23:21.503Z,9.27
2023-05-05T04:26:24.875Z,9.36
2023-05-05T04:29:27.918Z,9.34
2023-05-05T04:32:31.251Z,9.34
2023-05-05T04:35:33.811Z,9.55
2023-05-05T04:38:36.810Z,9.75
2023-05-05T04:41:40.128Z,9.95
2023-05-05T04:44:43.626Z,10.15
2023-05-05T04:47:46.641Z,10.29
2023-05-05T04:50:49.072Z,10.41
2023-05-05T04:53:52.006Z,10.68
2023-05-05T04:56:54.363Z,10.83
2023-05-05T04:59:56.704Z,11.04
2023-05-05T05:02:59.037Z,11.09
2023-05-05T05:06:01.797Z,11.26
2023-05-05T05:09:04.132Z,11.49
2023-05-05T05:12:07.956Z,11.69
2023-05-05T05:15:12.930Z,11.97
2023-05-05T05:18:15.516Z,12.21
2023-05-05T05:21:17.919Z,12.52
2023-05-05T05:24:20.294Z,12.91
2023-05-05T05:27:22.669Z,13.26
2023-05-05T05:30:26.690Z,13.23
2023-05-05T05:33:29.687Z,13.33
2023-05-05T05:36:33.700Z,13.52
2023-05-05T05:39:36.516Z,13.65
2023-05-05T05:42:40.178Z,14.09
2023-05-05T05:45:43.732Z,14.59
2023-05-05T05:48:46.124Z,14.82
2023-05-05T05:51:49.097Z,15.27
2023-05-05T05:54:51.419Z,15.50
2023-05-05T05:57:53.942Z,15.80
2023-05-05T06:00:56.504Z,16.27
2023-05-05T06:03:59.032Z,15.89
2023-05-05T06:07:01.514Z,16.19
2023-05-05T06:10:18.400Z,16.54
2023-05-05T06:13:26.717Z,16.60
2023-05-05T06:16:29.202Z,16.78
2023-05-05T06:19:34.470Z,16.69
2023-05-05T06:22:36.929Z,16.30
2023-05-05T06:25:39.463Z,16.67
2023-05-05T06:28:42.025Z,17.12
2023-05-05T06:31:44.277Z,17.07
2023-05-05T06:34:48.197Z,16.94
2023-05-05T06:37:50.567Z,17.40
2023-05-05T06:40:52.795Z,17.77
2023-05-05T06:43:55.027Z,18.06
2023-05-05T06:46:57.371Z,18.14
2023-05-05T06:49:59.618Z,18.55
2023-05-05T06:53:01.957Z,18.77
2023-05-05T06:56:04.461Z,18.93
2023-05-05T06:59:06.738Z,18.83
2023-05-05T07:02:09.021Z,19.06
2023-05-05T07:05:11.796Z,18.87
2023-05-05T07:08:14.181Z,19.49
2023-05-05T07:11:16.543Z,19.98
2023-05-05T07:14:18.811Z,19.04
2023-05-05T07:17:21.208Z,19.50
2023-05-05T07:20:24.321Z,20.19
2023-05-05T07:23:26.859Z,20.39
2023-05-05T07:26:29.222Z,20.89
2023-05-05T07:29:31.574Z,21.59
2023-05-05T07:32:33.893Z,21.38
2023-05-05T07:35:36.150Z,21.37
2023-05-05T07:38:38.409Z,21.59
2023-05-05T07:41:41.817Z,22.32
2023-05-05T07:44:44.154Z,22.80
2023-05-05T07:47:46.495Z,23.13
2023-05-05T07:50:48.808Z,23.21
2023-05-05T07:53:51.113Z,23.16
2023-05-05T07:56:53.426Z,23.90
2023-05-05T07:59:55.752Z,24.61
2023-05-05T08:02:58.246Z,24.74
2023-05-05T08:06:07.649Z,25.09
2023-05-05T08:09:10.189Z,25.44
2023-05-05T08:12:12.463Z,25.56
2023-05-05T08:15:14.765Z,25.57
2023-05-05T08:18:17.079Z,25.44
2023-05-05T08:21:19.634Z,26.11
2023-05-05T08:24:21.934Z,26.31
2023-05-05T08:27:24.229Z,26.96
2023-05-05T08:30:27.108Z,26.88
2023-05-05T08:33:29.546Z,26.72
2023-05-05T08:36:32.582Z,27.32
2023-05-05T08:39:34.991Z,27.29
2023-05-05T08:42:39.135Z,27.66
2023-05-05T08:45:42.333Z,28.36
2023-05-05T08:48:45.955Z,29.93
2023-05-05T08:51:50.718Z,31.32
2023-05-05T08:55:26.715Z,31.64
2023-05-05T08:58:31.309Z,31.95
2023-05-05T09:01:35.502Z,32.55
2023-05-05T09:04:38.351Z,32.72
2023-05-05T09:07:44.188Z,33.95
2023-05-05T09:10:49.050Z,34.72
2023-05-05T09:13:51.422Z,34.91
2023-05-05T09:16:53.706Z,34.66
2023-05-05T09:20:05.248Z,35.56
2023-05-05T09:23:11.619Z,35.77
2023-05-05T09:26:14.439Z,36.39
2023-05-05T09:29:21.330Z,33.45
2023-05-05T09:32:24.751Z,33.40
2023-05-05T09:35:27.148Z,30.94
2023-05-05T09:38:29.397Z,33.51
2023-05-05T09:41:43.558Z,35.12
2023-05-05T09:44:45.999Z,35.87
2023-05-05T09:47:49.216Z,36.99
2023-05-05T09:50:52.034Z,37.06
2023-05-05T09:53:54.321Z,36.41
2023-05-05T09:56:57.511Z,32.91
2023-05-05T10:00:01.296Z,33.78
2023-05-05T10:03:03.791Z,32.95
2023-05-05T10:06:07.890Z,35.33
2023-05-05T10:09:10.852Z,35.10
2023-05-05T10:12:13.242Z,34.79
2023-05-05T10:15:16.538Z,35.00
2023-05-05T10:18:28.231Z,31.96
2023-05-05T10:21:40.923Z,30.37
2023-05-05T10:24:53.827Z,28.70
2023-05-05T10:28:00.541Z,27.55
2023-05-05T10:31:16.505Z,27.14
2023-05-05T10:35:15.972Z,26.57
2023-05-05T10:38:19.898Z,28.46
2023-05-05T10:41:22.691Z,27.45
2023-05-05T10:44:25.324Z,27.01
2023-05-05T10:47:28.887Z,27.34
2023-05-05T10:50:37.708Z,32.20
2023-05-05T10:53:54.471Z,33.84
2023-05-05T10:57:01.301Z,35.03
2023-05-05T11:00:04.476Z,31.95
2023-05-05T14:05:01.087Z,25.12
2023-05-05T14:08:04.045Z,25.30
2023-05-05T14:11:06.597Z,25.09
2023-05-05T14:14:11.866Z,25.16
2023-05-05T14:17:14.449Z,24.29
2023-05-05T14:20:16.797Z,24.80
2023-05-05T14:23:19.212Z,24.50
2023-05-05T14:26:21.620Z,24.92
2023-05-05T14:29:23.905Z,25.48
2023-05-05T14:32:26.290Z,25.44
2023-05-05T14:35:28.652Z,25.58
2023-05-05T14:38:31.060Z,25.17
2023-05-05T14:41:33.401Z,25.48
2023-05-05T14:44:36.240Z,24.95
2023-05-05T14:47:38.634Z,24.83
2023-05-05T14:50:42.658Z,24.54
2023-05-05T14:53:45.050Z,24.61
2023-05-05T14:56:47.593Z,25.02
2023-05-05T14:59:52.035Z,24.56
2023-05-05T15:02:54.666Z,24.88
2023-05-05T15:05:57.273Z,24.29
2023-05-05T15:08:59.753Z,24.40
2023-05-05T15:12:02.090Z,24.13
2023-05-05T15:15:08.762Z,24.41
2023-05-05T15:18:11.687Z,24.37
2023-05-05T15:21:14.005Z,24.52
2023-05-05T15:24:16.380Z,24.20
2023-05-05T15:27:18.892Z,24.25
2023-05-05T15:30:21.172Z,24.01
2023-05-05T15:33:23.526Z,23.66
2023-05-05T15:36:25.833Z,23.58
2023-05-05T15:39:28.142Z,23.43
2023-05-05T15:42:32.391Z,23.45
2023-05-05T15:45:34.884Z,23.53
2023-05-05T15:48:37.346Z,23.40
2023-05-05T15:51:39.649Z,23.04
2023-05-05T15:54:41.979Z,22.97
2023-05-05T15:57:44.817Z,23.02
2023-05-05T16:00:47.425Z,22.79
2023-05-05T16:03:49.700Z,22.63
2023-05-05T16:06:52.159Z,22.44
2023-05-05T16:09:54.580Z,22.42
2023-05-05T16:12:58.301Z,22.35
2023-05-05T16:16:01.351Z,22.13
2023-05-05T16:19:03.849Z,21.92
2023-05-05T16:22:06.519Z,21.95
2023-05-05T16:25:09.781Z,21.80
2023-05-05T16:28:12.809Z,21.44
2023-05-05T16:31:15.169Z,21.35
2023-05-05T16:34:17.945Z,21.51
2023-05-05T16:37:20.672Z,21.40
2023-05-05T16:40:23.079Z,21.34
2023-05-05T16:43:25.786Z,21.28
2023-05-05T16:46:28.223Z,21.10
2023-05-05T16:49:30.890Z,20.94
2023-05-05T16:52:33.159Z,20.80
2023-05-05T16:55:35.952Z,20.63
2023-05-05T16:58:38.678Z,20.53
2023-05-05T17:01:42.111Z,20.54
2023-05-05T17:04:44.506Z,20.41
2023-05-05T17:07:48.592Z,20.21
2023-05-05T17:10:50.963Z,20.06
2023-05-05T17:13:53.448Z,19.80
2023-05-05T17:16:55.991Z,19.59
2023-05-05T17:19:58.416Z,19.50
2023-05-05T17:23:02.529Z,19.34
2023-05-05T17:26:05.545Z,19.12
2023-05-05T17:29:08.944Z,19.02
2023-05-05T17:32:14.726Z,18.94
2023-05-05T17:35:17.061Z,18.82
2023-05-05T17:38:19.327Z,18.63
2023-05-05T17:41:22.025Z,18.50
2023-05-05T17:44:24.254Z,18.44
2023-05-05T17:47:27.289Z,18.38
2023-05-05T17:50:29.649Z,18.22
2023-05-05T17:53:31.886Z,18.05
2023-05-05T17:56:35.934Z,17.95
2023-05-05T17:59:38.467Z,17.81
2023-05-05T18:02:40.916Z,17.70
2023-05-05T18:05:43.328Z,17.82
2023-05-05T18:08:45.608Z,17.84
2023-05-05T18:11:48.519Z,17.56
2023-05-05T18:14:50.905Z,17.21
2023-05-05T18:17:53.904Z,17.11
2023-05-05T18:20:56.163Z,17.02
2023-05-05T18:24:07.710Z,17.07
2023-05-05T18:27:21.096Z,16.83
2023-05-05T18:30:23.695Z,16.69
2023-05-05T18:33:26.566Z,16.78
2023-05-05T18:36:29.057Z,16.53
2023-05-05T18:39:31.748Z,16.31
2023-05-05T18:42:34.022Z,16.48
2023-05-05T18:45:36.437Z,16.39
2023-05-05T18:48:38.825Z,16.08
2023-05-05T18:51:41.425Z,15.92
2023-05-05T18:54:43.873Z,16.05
2023-05-05T18:57:46.152Z,16.11
2023-05-05T19:00:48.837Z,15.63
2023-05-05T19:03:51.536Z,15.48
2023-05-05T19:06:53.830Z,15.55
2023-05-05T19:09:56.538Z,15.41
2023-05-05T19:13:05.406Z,15.25
2023-05-05T19:16:07.838Z,15.26
2023-05-05T19:19:11.094Z,15.12
2023-05-05T19:22:13.621Z,15.07
2023-05-05T19:25:16.479Z,15.18
2023-05-05T19:28:19.478Z,15.10
2023-05-05T19:31:27.833Z,14.95
2023-05-05T19:34:30.241Z,15.01
2023-05-05T19:37:32.531Z,14.85
2023-05-05T19:40:35.038Z,14.84
2023-05-05T19:43:37.473Z,14.55
2023-05-05T19:46:39.943Z,14.35
2023-05-05T19:49:42.377Z,14.13
2023-05-05T19:52:45.090Z,14.11
2023-05-05T19:55:48.041Z,13.82
2023-05-05T19:59:00.658Z,13.67
2023-05-05T20:02:03.491Z,13.64
2023-05-05T20:05:06.493Z,13.72
2023-05-05T20:08:08.852Z,13.70
2023-05-05T20:11:11.153Z,13.96
2023-05-05T20:14:13.624Z,13.92
2023-05-05T20:17:20.271Z,13.75
2023-05-05T20:20:22.865Z,13.84
2023-05-05T20:23:29.217Z,13.86
2023-05-05T20:26:32.055Z,13.60
2023-05-05T20:29:34.547Z,13.51
2023-05-05T20:32:37.282Z,13.22
2023-05-05T20:35:39.765Z,13.07
2023-05-05T20:38:43.540Z,13.22
2023-05-05T20:41:47.162Z,12.96
2023-05-05T20:44:49.816Z,12.84
2023-05-05T20:47:52.173Z,13.10
2023-05-05T20:50:55.006Z,13.26
2023-05-05T20:53:57.980Z,13.09
2023-05-05T20:57:02.205Z,13.07
2023-05-05T21:00:05.462Z,12.97
2023-05-05T21:03:08.037Z,12.96
2023-05-05T21:06:10.521Z,13.00
2023-05-05T21:09:13.234Z,12.91
2023-05-05T21:12:15.831Z,12.68
2023-05-05T21:15:18.353Z,12.31
2023-05-05T21:18:20.828Z,12.18
2023-05-05T21:21:24.470Z,12.00
2023-05-05T21:24:28.139Z,12.23
2023-05-05T21:27:30.833Z,12.24
2023-05-05T21:30:33.139Z,12.26
2023-05-05T21:33:35.505Z,12.31
2023-05-05T21:36:38.735Z,12.32
2023-05-05T21:39:41.797Z,12.18
2023-05-05T21:42:44.550Z,12.01
2023-05-05T21:45:46.840Z,11.95
2023-05-05T21:48:49.308Z,11.95
2023-05-05T21:51:51.702Z,11.77
2023-05-05T21:54:54.007Z,11.71
2023-05-05T21:57:56.597Z,11.72
2023-05-05T22:00:58.964Z,11.86
2023-05-05T22:04:01.504Z,11.88
2023-05-05T22:07:04.117Z,11.87
2023-05-05T22:10:07.012Z,11.71
2023-05-05T22:13:10.861Z,11.82
2023-05-05T22:16:17.666Z,11.89
2023-05-05T22:19:20.295Z,11.73
2023-05-05T22:22:22.669Z,10.75
2023-05-05T22:25:25.002Z,11.09
2023-05-05T22:28:27.846Z,10.96
2023-05-05T22:31:31.092Z,11.11
2023-05-05T22:34:35.783Z,11.25
2023-05-05T22:37:38.477Z,11.46
2023-05-05T22:40:41.074Z,11.09
2023-05-05T22:43:43.409Z,11.25
2023-05-05T22:46:45.883Z,11.22
2023-05-05T22:49:48.442Z,11.30
2023-05-05T22:52:50.999Z,11.29
2023-05-05T22:55:53.303Z,11.26
2023-05-05T22:58:56.201Z,11.34
2023-05-05T23:01:59.099Z,11.09
2023-05-05T23:05:01.498Z,11.13
2023-05-05T23:08:03.979Z,11.09
2023-05-05T23:11:06.413Z,11.27
2023-05-05T23:14:08.898Z,11.49
2023-05-05T23:17:11.570Z,11.45
2023-05-05T23:20:14.416Z,10.85
2023-05-05T23:23:16.806Z,10.83
2023-05-05T23:26:19.098Z,11.05
2023-05-05T23:29:21.439Z,10.88
2023-05-05T23:32:23.879Z,10.91
2023-05-05T23:35:26.361Z,10.98
2023-05-05T23:38:28.824Z,10.36
2023-05-05T23:41:31.309Z,10.05
2023-05-05T23:44:33.689Z,10.07
2023-05-05T23:47:36.161Z,10.14
2023-05-05T23:50:38.492Z,10.37
2023-05-05T23:53:40.882Z,10.34
2023-05-05T23:56:43.248Z,10.23
2023-05-05T23:59:45.691Z,10.46
